Time;durP1;ratioP1;P1;durP2;ratioP2;P2;SDS_P1;SDS_P2;PMS_P1;PMS_P2;Temp;Humidity;BMP_temperature;BMP_pressure;BME280_temperature;BME280_humidity;BME280_pressure;Samples;Min_cycle;Max_cycle;Signal;HPM_P1;HPM_P2
2022/10/16 00:01:48;;;;;;;2.63;1.15;;;16.30;99.20;;;;;;5036392;28;20022;-73
2022/10/16 00:04:14;;;;;;;3.30;1.20;;;16.30;99.10;;;;;;5037672;28;20044;-73
2022/10/16 00:06:40;;;;;;;1.35;0.80;;;16.40;99.20;;;;;;5056044;28;20032;-73
2022/10/16 00:09:06;;;;;;;2.53;1.10;;;16.40;99.20;;;;;;5056470;28;20037;-74
2022/10/16 00:11:36;;;;;;;2.70;0.88;;;16.40;99.20;;;;;;5056076;28;20025;-74
2022/10/16 00:14:04;;;;;;;1.40;0.90;;;16.30;99.30;;;;;;5056246;28;20052;-70
2022/10/16 00:16:30;;;;;;;3.92;1.10;;;16.30;99.30;;;;;;5056101;28;20133;-75
2022/10/16 00:18:56;;;;;;;1.83;0.77;;;16.30;99.40;;;;;;5054642;28;20375;-74
2022/10/16 00:21:25;;;;;;;2.03;0.80;;;16.30;99.40;;;;;;5036122;28;20474;-74
2022/10/16 00:24:11;;;;;;;1.60;0.90;;;16.30;99.50;;;;;;5035964;28;20065;-74
2022/10/16 00:26:38;;;;;;;4.47;0.95;;;16.30;99.50;;;;;;5035517;28;20029;-74
2022/10/16 00:29:04;;;;;;;1.98;1.00;;;16.30;99.60;;;;;;5036012;28;20102;-74
2022/10/16 00:31:30;;;;;;;1.60;1.00;;;16.30;99.60;;;;;;5035832;28;20060;-74
2022/10/16 00:33:56;;;;;;;1.33;0.70;;;16.20;99.60;;;;;;5044901;28;20125;-74
2022/10/16 00:36:24;;;;;;;1.65;0.73;;;16.20;99.60;;;;;;5055711;28;20103;-75
2022/10/16 00:38:55;;;;;;;1.02;0.68;;;16.30;99.60;;;;;;5055645;28;20029;-74
2022/10/16 00:41:23;;;;;;;1.40;0.70;;;16.20;99.60;;;;;;5055609;28;20021;-74
2022/10/16 00:43:54;;;;;;;2.05;0.98;;;16.20;99.60;;;;;;5055685;28;20425;-74
2022/10/16 00:46:23;;;;;;;1.92;0.80;;;16.20;99.60;;;;;;5054737;28;20036;-74
2022/10/16 00:49:06;;;;;;;2.70;1.00;;;16.20;99.70;;;;;;5044587;28;20083;-74
2022/10/16 00:51:35;;;;;;;2.10;0.77;;;16.20;99.60;;;;;;5052485;28;20109;-74
2022/10/16 00:54:03;;;;;;;2.85;0.95;;;16.20;99.70;;;;;;5055363;28;20063;-74
2022/10/16 00:56:29;;;;;;;3.58;0.70;;;16.20;99.70;;;;;;5055175;28;20100;-73
2022/10/16 00:58:55;;;;;;;1.75;0.93;;;16.20;99.70;;;;;;5055529;28;20204;-74
2022/10/16 01:01:21;;;;;;;1.23;0.57;;;16.20;99.70;;;;;;5055388;28;20021;-73
2022/10/16 01:03:46;;;;;;;1.67;0.73;;;16.20;99.80;;;;;;5051777;28;20547;-73
2022/10/16 01:06:29;;;;;;;1.92;0.63;;;16.20;99.80;;;;;;5035375;28;20388;-74
2022/10/16 01:09:28;;;;;;;1.38;0.60;;;16.20;99.90;;;;;;5035229;28;20049;-69
2022/10/16 01:12:08;;;;;;;1.95;0.60;;;16.20;99.80;;;;;;5031070;28;20037;-72
2022/10/16 01:14:50;;;;;;;1.30;0.60;;;16.20;99.90;;;;;;5036136;28;20025;-74
2022/10/16 01:17:27;;;;;;;1.65;0.60;;;16.20;99.90;;;;;;5035217;28;20031;-73
2022/10/16 01:20:07;;;;;;;1.63;0.75;;;16.10;99.90;;;;;;5033673;28;20029;-72
2022/10/16 01:23:14;;;;;;;4.15;0.93;;;16.10;99.90;;;;;;5027701;28;20033;-72
2022/10/16 01:26:04;;;;;;;1.88;0.60;;;16.10;99.90;;;;;;5034206;28;20120;-72
2022/10/16 01:29:01;;;;;;;1.73;0.70;;;16.10;99.90;;;;;;5034496;28;20029;-73
2022/10/16 01:31:32;;;;;;;0.95;0.50;;;16.10;99.90;;;;;;5034608;28;20026;-73
2022/10/16 01:34:04;;;;;;;2.40;0.55;;;16.00;99.90;;;;;;5034699;28;20478;-74
2022/10/16 01:36:38;;;;;;;2.60;0.68;;;16.00;99.90;;;;;;5037396;28;20030;-74
2022/10/16 01:39:08;;;;;;;2.13;0.63;;;16.00;99.90;;;;;;5054105;28;20021;-69
2022/10/16 01:41:40;;;;;;;7.93;0.80;;;16.00;99.90;;;;;;5054438;28;20032;-74
2022/10/16 01:44:11;;;;;;;4.03;1.02;;;16.00;99.90;;;;;;5054663;28;20021;-74
2022/10/16 01:46:40;;;;;;;0.90;0.60;;;16.00;99.90;;;;;;5054471;28;20017;-72
2022/10/16 01:49:09;;;;;;;1.50;0.63;;;16.00;99.90;;;;;;5054481;28;20029;-73
2022/10/16 01:51:35;;;;;;;1.50;0.80;;;16.00;99.90;;;;;;5048408;28;20040;-74
2022/10/16 01:54:02;;;;;;;1.75;0.60;;;15.90;99.90;;;;;;5034676;28;20033;-72
2022/10/16 01:56:29;;;;;;;3.67;0.60;;;16.00;99.90;;;;;;5034360;28;20018;-74
2022/10/16 01:59:18;;;;;;;2.30;0.60;;;16.00;99.90;;;;;;5034199;28;20029;-74
2022/10/16 02:01:48;;;;;;;3.13;0.50;;;16.00;99.90;;;;;;5034287;28;20025;-73
2022/10/16 02:04:37;;;;;;;1.63;0.77;;;15.90;99.90;;;;;;5033756;28;20108;-74
2022/10/16 02:07:03;;;;;;;1.05;0.60;;;16.00;99.90;;;;;;5036556;28;20099;-73
2022/10/16 02:09:30;;;;;;;2.90;0.57;;;15.90;99.90;;;;;;5053690;28;20430;-74
2022/10/16 02:11:58;;;;;;;1.42;0.73;;;15.90;99.90;;;;;;5054060;28;20025;-74
2022/10/16 02:14:24;;;;;;;2.15;0.70;;;15.90;99.90;;;;;;5053862;28;20472;-74
2022/10/16 02:16:50;;;;;;;4.03;0.73;;;15.90;99.90;;;;;;5052541;28;20029;-74
2022/10/16 02:19:19;;;;;;;3.55;0.90;;;15.90;99.90;;;;;;5053728;28;20037;-74
2022/10/16 02:21:56;;;;;;;2.95;0.80;;;15.90;99.90;;;;;;5052568;28;20071;-74
2022/10/16 02:24:47;;;;;;;1.27;0.60;;;15.90;99.90;;;;;;5053178;28;20040;-65
2022/10/16 02:27:35;;;;;;;2.42;0.80;;;15.90;99.90;;;;;;5052144;28;20036;-74
2022/10/16 02:30:07;;;;;;;4.00;0.80;;;15.80;99.90;;;;;;5053532;28;20032;-74
2022/10/16 02:32:35;;;;;;;3.47;0.93;;;15.70;99.90;;;;;;5053548;28;20032;-73
2022/10/16 02:35:02;;;;;;;1.17;0.60;;;15.80;99.90;;;;;;5053593;28;20040;-73
2022/10/16 02:37:28;;;;;;;2.05;0.60;;;15.70;99.90;;;;;;5053144;28;20024;-73
2022/10/16 02:39:57;;;;;;;2.10;1.02;;;15.70;99.90;;;;;;5051619;28;20075;-74
2022/10/16 02:42:29;;;;;;;2.60;0.60;;;15.70;99.90;;;;;;5033362;28;20029;-74
2022/10/16 02:44:54;;;;;;;2.75;0.75;;;15.70;99.90;;;;;;5033520;28;20032;-74
2022/10/16 02:47:20;;;;;;;0.88;0.57;;;15.80;99.90;;;;;;5033617;28;20025;-74
2022/10/16 02:49:46;;;;;;;3.50;0.98;;;15.70;99.90;;;;;;5033173;28;20022;-72
2022/10/16 02:52:11;;;;;;;2.35;0.80;;;15.70;99.90;;;;;;5033212;28;20022;-74
2022/10/16 02:54:37;;;;;;;2.28;0.77;;;15.70;99.90;;;;;;5034151;28;20029;-74
2022/10/16 02:57:02;;;;;;;2.28;0.70;;;15.70;99.90;;;;;;5051844;28;20025;-74
2022/10/16 02:59:28;;;;;;;3.20;1.00;;;15.70;99.90;;;;;;5053106;28;20044;-72
2022/10/16 03:01:53;;;;;;;2.35;0.82;;;15.70;99.90;;;;;;5053125;28;20021;-73
2022/10/16 03:04:19;;;;;;;1.85;0.88;;;15.70;99.90;;;;;;5052816;28;20113;-64
2022/10/16 03:06:45;;;;;;;3.63;1.00;;;15.60;99.90;;;;;;5032916;28;20041;-64
2022/10/16 03:09:10;;;;;;;3.00;1.00;;;15.70;99.90;;;;;;5032527;28;20029;-69
2022/10/16 03:11:36;;;;;;;1.60;0.70;;;15.70;99.90;;;;;;5032946;28;20048;-62
2022/10/16 03:14:01;;;;;;;4.85;1.13;;;15.70;99.90;;;;;;5033076;28;20052;-62
2022/10/16 03:16:27;;;;;;;3.42;1.02;;;15.60;99.90;;;;;;5033083;28;20018;-62
2022/10/16 03:18:52;;;;;;;1.83;0.60;;;15.60;99.90;;;;;;5032919;28;20037;-67
2022/10/16 03:21:18;;;;;;;4.65;1.08;;;15.70;99.90;;;;;;5040490;28;20056;-66
2022/10/16 03:23:44;;;;;;;4.35;1.42;;;15.70;99.90;;;;;;5032642;28;20068;-68
2022/10/16 03:26:09;;;;;;;3.85;0.80;;;15.60;99.90;;;;;;5032906;28;20025;-73
2022/10/16 03:28:35;;;;;;;3.00;1.00;;;15.60;99.90;;;;;;5032736;28;20474;-73
2022/10/16 03:31:00;;;;;;;3.55;1.35;;;15.60;99.90;;;;;;5032795;28;20029;-73
2022/10/16 03:33:26;;;;;;;2.05;1.00;;;15.60;99.90;;;;;;5032794;28;20103;-73
2022/10/16 03:35:53;;;;;;;3.30;1.30;;;15.60;99.90;;;;;;5039619;28;20052;-73
2022/10/16 03:38:20;;;;;;;3.95;1.13;;;15.60;99.90;;;;;;5052818;28;20044;-72
2022/10/16 03:40:45;;;;;;;2.53;1.17;;;15.60;99.90;;;;;;5052131;28;20067;-74
2022/10/16 03:43:11;;;;;;;2.42;1.30;;;15.60;99.90;;;;;;5052804;28;20025;-73
2022/10/16 03:45:37;;;;;;;2.67;1.25;;;15.60;99.90;;;;;;5052633;28;20043;-73
2022/10/16 03:48:03;;;;;;;2.15;1.00;;;15.60;99.90;;;;;;5052694;28;20135;-73
2022/10/16 03:50:29;;;;;;;2.13;1.20;;;15.60;99.90;;;;;;5045408;28;20453;-74
2022/10/16 03:52:54;;;;;;;3.42;1.23;;;15.50;99.90;;;;;;5032509;28;20112;-74
2022/10/16 03:55:20;;;;;;;1.73;1.20;;;15.60;99.90;;;;;;5032721;28;20104;-73
2022/10/16 03:57:46;;;;;;;3.20;1.30;;;15.50;99.90;;;;;;5032496;28;20108;-73
2022/10/16 04:00:12;;;;;;;5.38;1.83;;;15.60;99.90;;;;;;5032657;28;20120;-72
2022/10/16 04:02:37;;;;;;;4.28;1.23;;;15.50;99.90;;;;;;5032387;28;20021;-74
2022/10/16 04:05:03;;;;;;;3.88;1.40;;;15.50;99.90;;;;;;5037700;28;20033;-73
2022/10/16 04:07:29;;;;;;;1.77;0.90;;;15.50;99.90;;;;;;5052266;28;20227;-74
2022/10/16 04:09:54;;;;;;;3.72;1.42;;;15.50;99.90;;;;;;5051102;28;20029;-72
2022/10/16 04:12:20;;;;;;;3.47;1.42;;;15.40;99.90;;;;;;5052308;28;20017;-73
2022/10/16 04:14:45;;;;;;;2.78;1.25;;;15.50;99.90;;;;;;5052370;28;20490;-74
2022/10/16 04:17:11;;;;;;;3.53;1.50;;;15.50;99.90;;;;;;5052938;28;20029;-72
2022/10/16 04:19:37;;;;;;;3.17;1.17;;;15.50;99.90;;;;;;5051733;28;20029;-71
2022/10/16 04:22:02;;;;;;;4.07;1.55;;;15.50;99.90;;;;;;5056125;28;20025;-73
2022/10/16 04:24:28;;;;;;;2.88;1.20;;;15.50;99.90;;;;;;5055916;28;20390;-74
2022/10/16 04:26:53;;;;;;;4.95;1.20;;;15.40;99.90;;;;;;5054625;28;20016;-74
2022/10/16 04:29:19;;;;;;;4.60;1.70;;;15.50;99.90;;;;;;5056061;28;20090;-73
2022/10/16 04:31:44;;;;;;;2.55;1.20;;;15.40;99.90;;;;;;5055627;28;20466;-73
2022/10/16 04:34:10;;;;;;;4.70;1.73;;;15.40;99.90;;;;;;5055868;28;20041;-74
2022/10/16 04:36:36;;;;;;;3.03;1.55;;;15.40;99.90;;;;;;5055849;28;20029;-74
2022/10/16 04:39:01;;;;;;;3.10;1.75;;;15.50;99.90;;;;;;5055881;28;20037;-73
2022/10/16 04:41:27;;;;;;;2.33;1.48;;;15.40;99.90;;;;;;5055622;28;20400;-74
2022/10/16 04:43:52;;;;;;;3.88;1.40;;;15.40;99.90;;;;;;5055507;28;20082;-73
2022/10/16 04:46:18;;;;;;;2.70;1.42;;;15.40;99.90;;;;;;5055873;28;20029;-72
2022/10/16 04:48:43;;;;;;;5.80;1.15;;;15.40;99.90;;;;;;5055143;28;20021;-74
2022/10/16 04:51:09;;;;;;;2.20;1.40;;;15.40;99.90;;;;;;5054307;28;20021;-73
2022/10/16 04:53:34;;;;;;;4.82;1.67;;;15.40;99.90;;;;;;5055433;28;20021;-73
2022/10/16 04:56:00;;;;;;;3.33;1.75;;;15.40;99.90;;;;;;5055453;28;20021;-74
2022/10/16 04:58:25;;;;;;;3.30;1.52;;;15.40;99.90;;;;;;5055538;28;20470;-73
2022/10/16 05:00:51;;;;;;;3.80;1.75;;;15.30;99.90;;;;;;5047051;28;20474;-74
2022/10/16 05:03:16;;;;;;;3.75;1.27;;;15.30;99.90;;;;;;5027376;28;20029;-68
2022/10/16 05:05:44;;;;;;;3.78;1.30;;;15.30;99.90;;;;;;5035178;28;20506;-73
2022/10/16 05:08:12;;;;;;;4.78;1.75;;;15.30;99.90;;;;;;5033434;28;20021;-71
2022/10/16 05:10:38;;;;;;;2.58;1.42;;;15.30;99.90;;;;;;5035263;28;20109;-70
2022/10/16 05:13:03;;;;;;;4.55;1.58;;;15.30;99.90;;;;;;5035138;28;20049;-67
2022/10/16 05:15:29;;;;;;;4.85;1.75;;;15.30;99.90;;;;;;5035288;28;20422;-62
2022/10/16 05:17:55;;;;;;;3.97;1.23;;;15.30;99.90;;;;;;5034381;28;20348;-65
2022/10/16 05:20:22;;;;;;;3.55;1.30;;;15.20;99.90;;;;;;5035202;28;20033;-62
2022/10/16 05:22:48;;;;;;;3.92;1.40;;;15.20;99.90;;;;;;5034928;28;20083;-65
2022/10/16 05:25:13;;;;;;;4.65;1.70;;;15.30;99.90;;;;;;5035119;28;20088;-63
2022/10/16 05:27:39;;;;;;;4.72;1.70;;;15.20;99.90;;;;;;5034945;28;20033;-62
2022/10/16 05:30:05;;;;;;;3.55;1.85;;;15.30;99.90;;;;;;5034894;28;20026;-63
2022/10/16 05:32:31;;;;;;;2.97;1.40;;;15.30;99.90;;;;;;5049946;28;20033;-73
2022/10/16 05:34:56;;;;;;;2.17;1.45;;;15.30;99.90;;;;;;5034646;28;20033;-74
2022/10/16 05:37:22;;;;;;;3.75;1.40;;;15.20;99.90;;;;;;5034819;28;20379;-72
2022/10/16 05:39:47;;;;;;;3.72;1.20;;;15.30;99.90;;;;;;5034587;28;20044;-72
2022/10/16 05:42:13;;;;;;;4.13;1.50;;;15.30;99.90;;;;;;5034690;28;20013;-74
2022/10/16 05:44:38;;;;;;;5.90;1.38;;;15.20;99.90;;;;;;5034641;28;20387;-73
2022/10/16 05:47:04;;;;;;;3.72;1.70;;;15.30;99.90;;;;;;5033843;28;20486;-64
2022/10/16 05:49:29;;;;;;;5.60;1.50;;;15.20;99.90;;;;;;5023700;28;20026;-66
2022/10/16 05:51:55;;;;;;;4.95;1.60;;;15.10;99.90;;;;;;5033757;28;20033;-65
2022/10/16 05:54:20;;;;;;;3.88;1.35;;;15.10;99.90;;;;;;5033950;28;20025;-66
2022/10/16 05:56:46;;;;;;;4.72;1.65;;;15.10;99.90;;;;;;5033752;28;20198;-66
2022/10/16 05:59:11;;;;;;;5.07;1.38;;;15.10;99.90;;;;;;5033651;28;20033;-66
2022/10/16 06:01:37;;;;;;;2.90;1.50;;;15.20;99.90;;;;;;5033604;28;20025;-65
2022/10/16 06:04:02;;;;;;;3.92;1.33;;;15.20;99.90;;;;;;5033592;28;20033;-66
2022/10/16 06:06:29;;;;;;;6.28;1.65;;;15.20;99.90;;;;;;5049109;28;20026;-65
2022/10/16 06:08:56;;;;;;;5.28;1.52;;;15.20;99.90;;;;;;5033316;28;20025;-65
2022/10/16 06:11:24;;;;;;;2.53;1.10;;;15.20;99.90;;;;;;5041797;28;20043;-66
2022/10/16 06:13:58;;;;;;;3.03;1.25;;;15.20;99.90;;;;;;5045869;28;20017;-66
2022/10/16 06:16:25;;;;;;;3.47;1.38;;;15.20;99.90;;;;;;5033104;28;20036;-66
2022/10/16 06:18:52;;;;;;;3.33;0.80;;;15.20;99.90;;;;;;5033550;28;20025;-66
2022/10/16 06:21:20;;;;;;;3.47;1.02;;;15.30;99.90;;;;;;5033299;28;20099;-66
2022/10/16 06:23:47;;;;;;;2.70;0.85;;;15.40;99.90;;;;;;5031605;28;20088;-66
2022/10/16 06:26:18;;;;;;;4.95;0.80;;;15.50;99.90;;;;;;5031996;28;20036;-66
2022/10/16 06:28:44;;;;;;;3.13;1.10;;;15.50;99.90;;;;;;5032896;28;20426;-67
2022/10/16 06:31:11;;;;;;;4.43;0.88;;;15.50;99.90;;;;;;5032912;28;20026;-66
2022/10/16 06:33:37;;;;;;;3.53;1.30;;;15.50;99.90;;;;;;5031330;28;20075;-66
2022/10/16 06:36:14;;;;;;;1.58;0.70;;;15.50;99.90;;;;;;5032590;28;20030;-66
2022/10/16 06:38:40;;;;;;;1.58;0.52;;;15.60;99.90;;;;;;5033051;28;20052;-66
2022/10/16 06:41:07;;;;;;;2.92;0.85;;;15.60;99.90;;;;;;5032812;28;20037;-66
2022/10/16 06:43:35;;;;;;;5.60;1.08;;;15.60;99.90;;;;;;5031489;28;20045;-65
2022/10/16 06:46:01;;;;;;;3.08;1.20;;;15.60;99.90;;;;;;5033108;28;20039;-65
2022/10/16 06:48:27;;;;;;;9.40;1.02;;;15.50;99.90;;;;;;5032982;28;20528;-66
2022/10/16 06:51:01;;;;;;;3.50;1.30;;;15.60;99.90;;;;;;5032522;28;20040;-66
2022/10/16 06:53:29;;;;;;;4.75;1.55;;;15.60;99.90;;;;;;5035830;28;20045;-66
2022/10/16 06:55:55;;;;;;;3.95;1.10;;;15.60;99.90;;;;;;5034194;28;20056;-67
2022/10/16 06:58:21;;;;;;;5.60;1.48;;;15.60;99.90;;;;;;5030491;28;20541;-61
2022/10/16 07:00:46;;;;;;;4.68;1.00;;;15.60;99.90;;;;;;5028805;28;20034;-63
2022/10/16 07:03:12;;;;;;;5.05;1.02;;;15.60;99.90;;;;;;5030418;28;20037;-61
2022/10/16 07:05:42;;;;;;;7.50;1.42;;;15.60;99.90;;;;;;5030968;28;20017;-61
2022/10/16 07:08:08;;;;;;;3.45;1.00;;;15.60;99.90;;;;;;5036312;28;20025;-64
2022/10/16 07:10:34;;;;;;;4.65;1.38;;;15.60;99.90;;;;;;5039211;28;20083;-62
2022/10/16 07:13:00;;;;;;;5.90;1.80;;;15.70;99.90;;;;;;5031066;28;20100;-66
2022/10/16 07:15:26;;;;;;;5.70;1.40;;;15.70;99.90;;;;;;5032796;28;20148;-66
2022/10/16 07:17:52;;;;;;;8.68;1.52;;;15.60;99.90;;;;;;5035643;28;20382;-65
2022/10/16 07:20:18;;;;;;;8.30;1.10;;;15.70;99.90;;;;;;5050245;28;20033;-63
2022/10/16 07:22:44;;;;;;;3.90;0.98;;;15.70;99.90;;;;;;5025655;28;20026;-64
2022/10/16 07:25:10;;;;;;;4.28;1.40;;;15.60;99.90;;;;;;5032277;28;20458;-63
2022/10/16 07:27:36;;;;;;;5.85;1.88;;;15.60;99.90;;;;;;5030587;28;20083;-65
2022/10/16 07:30:02;;;;;;;4.53;1.65;;;15.60;99.90;;;;;;5032360;28;20115;-66
2022/10/16 07:32:28;;;;;;;5.00;1.38;;;15.60;99.90;;;;;;5032528;28;20029;-63
2022/10/16 07:34:55;;;;;;;5.45;1.60;;;15.60;99.90;;;;;;5031767;28;20029;-65
2022/10/16 07:37:21;;;;;;;2.50;1.08;;;15.60;99.90;;;;;;5033582;28;20032;-65
2022/10/16 07:39:46;;;;;;;7.10;1.70;;;15.60;99.90;;;;;;5034224;28;20585;-63
2022/10/16 07:42:12;;;;;;;6.15;1.33;;;15.60;99.90;;;;;;5024723;28;20448;-64
2022/10/16 07:44:37;;;;;;;5.32;1.45;;;15.60;99.90;;;;;;5027860;28;20025;-63
2022/10/16 07:47:03;;;;;;;8.57;1.50;;;15.60;99.90;;;;;;5026069;28;20029;-62
2022/10/16 07:49:29;;;;;;;3.17;1.17;;;15.60;99.90;;;;;;5023333;28;20028;-64
2022/10/16 07:51:54;;;;;;;8.48;1.30;;;15.70;99.90;;;;;;5030515;28;20467;-64
2022/10/16 07:54:20;;;;;;;6.45;1.35;;;15.70;99.90;;;;;;5031888;28;20107;-65
2022/10/16 07:56:45;;;;;;;5.20;1.50;;;15.70;99.90;;;;;;5021725;28;20073;-61
2022/10/16 07:59:11;;;;;;;8.75;1.88;;;15.70;99.90;;;;;;5026004;28;20053;-65
2022/10/16 08:01:37;;;;;;;9.25;2.03;;;15.80;99.90;;;;;;5033645;28;20029;-64
2022/10/16 08:04:02;;;;;;;9.48;1.88;;;15.70;99.90;;;;;;5027878;28;20036;-61
2022/10/16 08:06:28;;;;;;;8.07;1.98;;;15.80;99.90;;;;;;5026837;28;20018;-66
2022/10/16 08:08:54;;;;;;;5.00;1.92;;;15.80;99.90;;;;;;5029896;28;20091;-60
2022/10/16 08:11:20;;;;;;;4.70;1.48;;;15.80;99.90;;;;;;5036504;28;20021;-64
2022/10/16 08:13:45;;;;;;;3.58;1.50;;;15.80;99.90;;;;;;5024932;28;20040;-63
2022/10/16 08:16:11;;;;;;;6.63;2.10;;;15.80;99.90;;;;;;5034651;28;20033;-63
2022/10/16 08:18:38;;;;;;;10.88;3.00;;;15.90;99.90;;;;;;5039728;28;20021;-63
2022/10/16 08:21:05;;;;;;;15.32;4.80;;;15.90;99.90;;;;;;5030069;28;20558;-65
2022/10/16 08:23:30;;;;;;;21.30;6.82;;;15.90;99.90;;;;;;5031754;28;20025;-66
2022/10/16 08:26:02;;;;;;;24.48;7.05;;;15.90;99.90;;;;;;5035439;28;20116;-65
2022/10/16 08:28:27;;;;;;;30.63;7.05;;;15.90;99.90;;;;;;5029224;28;20140;-67
2022/10/16 08:30:53;;;;;;;21.80;7.15;;;16.00;99.90;;;;;;5033273;28;20494;-61
2022/10/16 08:33:18;;;;;;;28.58;7.10;;;16.00;99.90;;;;;;5034414;28;20540;-64
2022/10/16 08:35:51;;;;;;;22.55;7.07;;;15.90;99.90;;;;;;5031024;28;20445;-67
2022/10/16 08:38:16;;;;;;;23.17;6.93;;;16.00;99.90;;;;;;5040096;28;20160;-64
2022/10/16 08:40:42;;;;;;;18.10;6.82;;;16.00;99.90;;;;;;5032886;28;20068;-64
2022/10/16 08:43:20;;;;;;;11.00;4.32;;;16.00;99.90;;;;;;5036912;28;20029;-65
2022/10/16 08:45:49;;;;;;;10.52;4.00;;;16.00;99.90;;;;;;5031676;28;20041;-62
2022/10/16 08:48:33;;;;;;;10.48;3.47;;;16.00;99.90;;;;;;5033368;28;20035;-64
2022/10/16 08:51:01;;;;;;;12.68;4.45;;;16.00;99.90;;;;;;5019925;28;20029;-65
2022/10/16 08:53:48;;;;;;;12.55;3.97;;;16.00;99.90;;;;;;5029245;28;20021;-65
2022/10/16 08:56:14;;;;;;;17.05;4.97;;;16.10;99.90;;;;;;5031593;28;20478;-66
2022/10/16 08:58:39;;;;;;;11.05;3.50;;;16.00;99.90;;;;;;5031918;28;20047;-64
2022/10/16 09:01:12;;;;;;;16.58;5.00;;;16.00;99.90;;;;;;5039110;28;20222;-64
2022/10/16 09:03:53;;;;;;;16.40;7.47;;;16.00;99.90;;;;;;5031773;28;20629;-64
2022/10/16 09:06:39;;;;;;;14.00;4.75;;;16.10;99.90;;;;;;5030715;28;20779;-64
2022/10/16 09:09:31;;;;;;;9.80;4.65;;;16.10;99.90;;;;;;5026937;28;20036;-64
2022/10/16 09:12:08;;;;;;;18.13;7.93;;;16.10;99.90;;;;;;5033931;28;20514;-65
2022/10/16 09:15:07;;;;;;;15.45;7.03;;;16.10;99.90;;;;;;5018815;28;20091;-64
2022/10/16 09:17:35;;;;;;;13.40;4.80;;;16.10;99.90;;;;;;4990406;28;20072;-65
2022/10/16 09:20:16;;;;;;;10.30;3.90;;;16.10;99.90;;;;;;5017518;28;20045;-64
2022/10/16 09:22:42;;;;;;;8.93;3.30;;;16.10;99.90;;;;;;5024307;28;20099;-64
2022/10/16 09:25:14;;;;;;;7.72;2.83;;;16.10;99.90;;;;;;5016365;28;20467;-63
2022/10/16 09:27:40;;;;;;;8.95;2.33;;;16.10;99.90;;;;;;5029950;28;20029;-64
2022/10/16 09:30:18;;;;;;;10.57;1.83;;;16.20;99.90;;;;;;5039919;28;20111;-64
2022/10/16 09:32:45;;;;;;;6.60;1.77;;;16.20;99.90;;;;;;5026201;28;20040;-65
2022/10/16 09:35:16;;;;;;;7.18;2.00;;;16.10;99.90;;;;;;5031000;28;20440;-63
2022/10/16 09:37:45;;;;;;;7.65;1.58;;;16.10;99.90;;;;;;5032257;28;20410;-64
2022/10/16 09:40:36;;;;;;;6.80;2.30;;;16.20;99.90;;;;;;5023453;28;20033;-62
2022/10/16 09:43:25;;;;;;;6.15;1.60;;;16.20;99.90;;;;;;5017180;28;20029;-65
2022/10/16 09:46:22;;;;;;;7.35;1.98;;;16.20;99.90;;;;;;5024030;28;20089;-63
2022/10/16 09:48:49;;;;;;;8.38;2.28;;;16.20;99.90;;;;;;5026544;28;20084;-61
2022/10/16 09:51:30;;;;;;;6.72;1.77;;;16.20;99.90;;;;;;5031004;28;20375;-64
2022/10/16 09:54:01;;;;;;;8.10;1.85;;;16.30;99.90;;;;;;5023621;28;20661;-63
2022/10/16 09:56:41;;;;;;;6.95;2.00;;;16.30;99.90;;;;;;5025499;28;20175;-65
2022/10/16 09:59:18;;;;;;;9.40;1.80;;;16.30;99.90;;;;;;5032044;28;20115;-65
2022/10/16 10:01:51;;;;;;;7.32;1.77;;;16.30;99.90;;;;;;5039287;28;20040;-65
2022/10/16 10:04:19;;;;;;;7.30;1.55;;;16.30;99.90;;;;;;5025245;28;20032;-61
2022/10/16 10:06:47;;;;;;;4.90;1.40;;;16.30;99.90;;;;;;5027308;28;20021;-64
2022/10/16 10:09:19;;;;;;;5.03;1.00;;;16.30;99.90;;;;;;5025357;28;20033;-61
2022/10/16 10:11:52;;;;;;;6.97;1.73;;;16.40;99.90;;;;;;5026622;28;20036;-65
2022/10/16 10:14:26;;;;;;;7.82;1.92;;;16.40;99.90;;;;;;5030559;28;20116;-62
2022/10/16 10:17:02;;;;;;;9.98;2.10;;;16.40;99.90;;;;;;5030663;28;20066;-62
2022/10/16 10:19:27;;;;;;;8.20;3.00;;;16.40;99.90;;;;;;5026204;28;20037;-64
2022/10/16 10:21:53;;;;;;;7.93;2.13;;;16.40;99.90;;;;;;5023043;28;20028;-64
2022/10/16 10:24:19;;;;;;;9.57;2.30;;;16.50;99.90;;;;;;5031710;28;20029;-63
2022/10/16 10:27:10;;;;;;;11.05;2.33;;;16.50;99.90;;;;;;5023365;28;20025;-63
2022/10/16 10:30:06;;;;;;;8.13;2.15;;;16.50;99.90;;;;;;5026027;28;20110;-64
2022/10/16 10:32:48;;;;;;;7.65;2.17;;;16.60;99.90;;;;;;5016192;28;20038;-61
2022/10/16 10:35:16;;;;;;;;;;;16.60;99.90;;;;;;5025297;28;20021;-65
2022/10/16 10:38:21;;;;;;;8.98;2.60;;;16.60;99.90;;;;;;5032304;28;20160;-65
2022/10/16 10:41:21;;;;;;;6.75;2.25;;;16.60;99.90;;;;;;5038222;28;20033;-65
2022/10/16 10:44:11;;;;;;;10.57;2.28;;;16.60;99.90;;;;;;5025088;28;20482;-64
2022/10/16 10:46:50;;;;;;;12.15;3.53;;;16.70;99.90;;;;;;5024461;28;21453;-65
2022/10/16 10:49:48;;;;;;;14.05;3.40;;;16.70;99.90;;;;;;5025728;28;20552;-65
2022/10/16 10:52:38;;;;;;;11.80;3.70;;;16.70;99.90;;;;;;5026640;28;20041;-65
2022/10/16 10:55:29;;;;;;;10.85;2.88;;;16.70;99.90;;;;;;5037212;28;20032;-65
2022/10/16 10:58:28;;;;;;;16.27;3.17;;;16.80;99.90;;;;;;5028384;28;20429;-65
2022/10/16 11:01:26;;;;;;;8.40;2.35;;;16.80;99.90;;;;;;5029399;28;20037;-64
2022/10/16 11:04:27;;;;;;;8.50;2.97;;;16.80;99.90;;;;;;5031355;28;20119;-65
2022/10/16 11:07:01;;;;;;;7.57;2.38;;;16.80;99.90;;;;;;5030404;28;20029;-64
2022/10/16 11:09:43;;;;;;;8.10;2.10;;;16.80;99.90;;;;;;5027228;28;20475;-66
2022/10/16 11:12:25;;;;;;;13.52;2.35;;;16.90;99.90;;;;;;5025592;28;20029;-64
2022/10/16 11:15:12;;;;;;;7.97;1.90;;;16.90;99.90;;;;;;5031606;28;20021;-64
2022/10/16 11:17:42;;;;;;;11.70;2.58;;;16.90;99.90;;;;;;5032477;28;20025;-64
2022/10/16 11:20:24;;;;;;;9.50;2.35;;;16.90;99.90;;;;;;5023602;28;20034;-66
2022/10/16 11:23:16;;;;;;;9.50;1.95;;;16.90;99.90;;;;;;5026955;28;20040;-66
2022/10/16 11:25:43;;;;;;;13.10;2.25;;;17.00;99.90;;;;;;5020626;28;20116;-66
2022/10/16 11:28:17;;;;;;;11.00;2.30;;;17.00;99.90;;;;;;5021286;28;20045;-61
2022/10/16 11:30:55;;;;;;;12.32;3.85;;;17.00;99.90;;;;;;5032094;28;20044;-63
2022/10/16 11:33:31;;;;;;;11.68;4.03;;;17.00;99.90;;;;;;5023866;28;20444;-60
2022/10/16 11:36:17;;;;;;;12.40;3.63;;;17.00;99.90;;;;;;5023369;28;20127;-64
2022/10/16 11:38:48;;;;;;;13.85;3.85;;;17.10;99.90;;;;;;5015793;28;20860;-64
2022/10/16 11:41:25;;;;;;;10.85;3.38;;;17.10;99.90;;;;;;5030947;28;20455;-63
2022/10/16 11:44:16;;;;;;;13.98;3.72;;;17.10;99.90;;;;;;5028454;28;20026;-67
2022/10/16 11:46:52;;;;;;;12.43;3.53;;;17.10;99.90;;;;;;5031296;28;20120;-60
2022/10/16 11:49:26;;;;;;;11.85;2.67;;;17.20;99.90;;;;;;5029470;28;20034;-64
2022/10/16 11:52:06;;;;;;;8.20;2.00;;;17.20;99.90;;;;;;5029118;28;20539;-65
2022/10/16 11:54:52;;;;;;;7.97;2.00;;;17.20;99.90;;;;;;5031554;28;20117;-66
2022/10/16 11:57:23;;;;;;;8.55;2.15;;;17.30;99.90;;;;;;5030178;28;20043;-66
2022/10/16 12:00:17;;;;;;;5.60;1.58;;;17.20;99.90;;;;;;5032490;28;20044;-66
2022/10/16 12:02:55;;;;;;;7.75;1.70;;;17.30;99.90;;;;;;5036970;28;20036;-66
2022/10/16 12:05:35;;;;;;;7.57;1.30;;;17.30;99.90;;;;;;5029084;28;20083;-63
2022/10/16 12:08:10;;;;;;;8.00;1.40;;;17.30;99.90;;;;;;5033111;28;20025;-62
2022/10/16 12:10:38;;;;;;;5.60;1.08;;;17.30;99.90;;;;;;5033544;28;20021;-65
2022/10/16 12:13:28;;;;;;;11.20;2.10;;;17.30;99.90;;;;;;5034284;28;20042;-61
2022/10/16 12:16:05;;;;;;;5.78;1.33;;;17.30;99.90;;;;;;5044152;28;20539;-61
2022/10/16 12:18:31;;;;;;;6.63;1.52;;;17.30;99.90;;;;;;5023769;28;20671;-63
2022/10/16 12:21:07;;;;;;;6.70;1.08;;;17.30;99.90;;;;;;5027948;28;20044;-65
2022/10/16 12:23:37;;;;;;;6.93;1.33;;;17.30;99.90;;;;;;5023687;28;20160;-63
2022/10/16 12:26:04;;;;;;;5.70;1.13;;;17.40;99.90;;;;;;5027719;28;20293;-60
2022/10/16 12:28:32;;;;;;;11.02;1.20;;;17.40;99.90;;;;;;5022245;28;20355;-60
2022/10/16 12:30:58;;;;;;;5.63;1.40;;;17.50;99.90;;;;;;5028903;28;20074;-60
2022/10/16 12:34:02;;;;;;;9.68;1.65;;;17.40;99.90;;;;;;5030538;28;20030;-62
2022/10/16 12:36:36;;;;;;;5.07;1.20;;;17.50;99.90;;;;;;5008681;28;20538;-63
2022/10/16 12:39:03;;;;;;;5.28;0.98;;;17.50;99.90;;;;;;5030800;28;20029;-61
2022/10/16 12:41:34;;;;;;;6.55;1.17;;;17.50;99.90;;;;;;5024937;28;20038;-62
2022/10/16 12:44:01;;;;;;;4.78;1.52;;;17.50;99.90;;;;;;5038800;28;20502;-63
2022/10/16 12:46:30;;;;;;;7.20;1.40;;;17.50;99.90;;;;;;5027831;28;20100;-63
2022/10/16 12:49:07;;;;;;;10.48;2.00;;;17.50;99.90;;;;;;5025678;28;20029;-60
2022/10/16 12:51:32;;;;;;;8.10;1.30;;;17.60;99.90;;;;;;5021422;28;20045;-62
2022/10/16 12:54:04;;;;;;;8.43;1.58;;;17.60;99.90;;;;;;5035828;28;20807;-60
2022/10/16 12:57:07;;;;;;;6.32;1.45;;;17.60;99.90;;;;;;5032057;28;20557;-61
2022/10/16 13:00:23;;;;;;;4.72;1.35;;;17.60;99.90;;;;;;5024915;28;20275;-62
2022/10/16 13:03:17;;;;;;;3.15;1.15;;;17.70;99.80;;;;;;5017314;28;20025;-69
2022/10/16 13:06:04;;;;;;;4.45;0.95;;;17.60;99.50;;;;;;5028060;28;20395;-61
2022/10/16 13:08:38;;;;;;;5.47;1.33;;;17.70;99.30;;;;;;5030852;28;20064;-59